Time;durP1;ratioP1;P1;durP2;ratioP2;P2;SDS_P1;SDS_P2;PMS_P1;PMS_P2;Temp;Humidity;BMP_temperature;BMP_pressure;BME280_temperature;BME280_humidity;BME280_pressure;Samples;Min_cycle;Max_cycle;Signal;HPM_P1;HPM_P2
2024/04/03 00:02:25;;;;;;;3.63;1.48;;;;;;;-145.94;100.00;66302.34;5740906;25;20072;-61
2024/04/03 00:05:50;;;;;;;4.60;1.60;;;;;;;-145.94;100.00;66302.34;5741716;25;20071;-61
2024/04/03 00:09:15;;;;;;;6.28;1.40;;;;;;;-145.94;100.00;66302.34;5709174;25;20398;-63
2024/04/03 00:12:40;;;;;;;8.30;1.55;;;;;;;-145.94;100.00;66302.34;5743887;25;20146;-61
2024/04/03 00:16:05;;;;;;;3.42;1.35;;;;;;;-145.94;100.00;66302.34;5740151;25;20044;-61
2024/04/03 00:19:31;;;;;;;5.68;1.30;;;;;;;-145.94;100.00;66302.34;5739958;25;20052;-62
2024/04/03 00:22:57;;;;;;;10.07;1.60;;;;;;;-145.94;100.00;66302.34;5741790;25;20045;-62
2024/04/03 00:26:22;;;;;;;3.47;1.70;;;;;;;-145.94;100.00;66302.34;5739291;25;20048;-62
2024/04/03 00:29:48;;;;;;;4.38;1.75;;;;;;;-145.94;100.00;66302.34;5738272;25;20037;-63
2024/04/03 00:33:13;;;;;;;4.63;1.58;;;;;;;-145.94;100.00;66302.34;5703800;25;20146;-63
2024/04/03 00:36:38;;;;;;;3.47;1.80;;;;;;;-145.94;100.00;66302.34;5738186;24;20037;-63
2024/04/03 00:40:04;;;;;;;5.57;2.17;;;;;;;-145.94;100.00;66302.34;5730750;25;20048;-63
2024/04/03 00:43:29;;;;;;;5.13;1.92;;;;;;;-145.94;100.00;66302.34;5729917;24;20044;-63
2024/04/03 00:46:54;;;;;;;;;;;;;;;-145.94;100.00;66302.34;5733413;24;20047;-62
2024/04/03 00:50:19;;;;;;;3.92;1.50;;;;;;;-145.94;100.00;66302.34;5728798;25;20316;-62
2024/04/03 00:53:44;;;;;;;6.97;1.65;;;;;;;-145.94;100.00;66302.34;5732248;25;20029;-62
2024/04/03 00:57:12;;;;;;;11.18;2.40;;;;;;;-145.94;100.00;66302.34;5734434;24;20436;-62
2024/04/03 01:00:40;;;;;;;4.25;2.33;;;;;;;-145.94;100.00;66302.34;5736984;24;20071;-63
2024/04/03 01:04:05;;;;;;;5.40;2.10;;;;;;;-145.94;100.00;66302.34;5736953;25;20427;-63
2024/04/03 01:07:30;;;;;;;8.70;2.45;;;;;;;-145.94;100.00;66302.34;5736681;25;20064;-63
2024/04/03 01:10:58;;;;;;;6.57;1.80;;;;;;;-145.94;100.00;66302.34;5735775;25;20072;-62
2024/04/03 01:14:24;;;;;;;6.57;1.90;;;;;;;-145.94;100.00;66302.34;5736190;25;20041;-62
2024/04/03 01:17:49;;;;;;;;;;;;;;;-145.94;100.00;66302.34;5736045;25;20146;-63
2024/04/03 01:21:14;;;;;;;7.53;2.42;;;;;;;-145.94;100.00;66302.34;5734559;25;19947;-63
2024/04/03 01:24:38;;;;;;;5.22;1.50;;;;;;;-145.94;100.00;66302.34;5736285;25;20060;-63
2024/04/03 01:28:04;;;;;;;3.78;1.38;;;;;;;-145.94;100.00;66302.34;5699845;25;20138;-63
2024/04/03 01:31:28;;;;;;;4.78;1.30;;;;;;;-145.94;100.00;66302.34;5736059;25;20083;-62
2024/04/03 01:34:53;;;;;;;4.95;1.45;;;;;;;-145.94;100.00;66302.34;5736641;25;20120;-63
2024/04/03 01:38:19;;;;;;;5.97;1.45;;;;;;;-145.94;100.00;66302.34;5735203;25;20112;-63
2024/04/03 01:41:44;;;;;;;3.33;1.27;;;;;;;-145.94;100.00;66302.34;5699910;25;20053;-63
2024/04/03 01:45:09;;;;;;;4.95;1.15;;;;;;;-145.94;100.00;66302.34;5700132;25;20432;-63
2024/04/03 01:48:34;;;;;;;5.13;1.35;;;;;;;-145.94;100.00;66302.34;5698903;25;20124;-63
2024/04/03 01:52:03;;;;;;;2.85;1.08;;;;;;;-145.94;100.00;66302.34;5700496;25;20048;-63
2024/04/03 01:55:28;;;;;;;2.78;1.38;;;;;;;-145.94;100.00;66302.34;5735441;25;20071;-63
2024/04/03 01:58:53;;;;;;;9.30;2.40;;;;;;;-145.94;100.00;66302.34;5734584;25;20036;-62
2024/04/03 02:02:18;;;;;;;4.43;1.77;;;;;;;-145.94;100.00;66302.34;5701447;25;20406;-62
2024/04/03 02:05:43;;;;;;;7.65;3.20;;;;;;;-145.94;100.00;66302.34;5734863;25;20562;-62
2024/04/03 02:09:08;;;;;;;;;;;;;;;-145.94;100.00;66302.34;5734877;25;20507;-62
2024/04/03 02:12:33;;;;;;;1.80;1.13;;;;;;;-145.94;100.00;66302.34;5733935;25;19977;-62
2024/04/03 02:15:58;;;;;;;6.38;2.10;;;;;;;-145.94;100.00;66302.34;5735212;25;20104;-63
2024/04/03 02:19:23;;;;;;;11.05;3.03;;;;;;;-145.94;100.00;66302.34;5698703;25;20057;-63
2024/04/03 02:22:48;;;;;;;5.18;1.27;;;;;;;-145.94;100.00;66302.34;5734952;25;20116;-63
2024/04/03 02:26:13;;;;;;;3.53;1.40;;;;;;;-145.94;100.00;66302.34;5734646;25;20052;-63
2024/04/03 02:29:38;;;;;;;6.47;1.80;;;;;;;-145.94;100.00;66302.34;5733598;25;20025;-63
2024/04/03 02:33:03;;;;;;;4.22;2.30;;;;;;;-145.94;100.00;66302.34;5734642;25;20446;-63
2024/04/03 02:36:28;;;;;;;5.53;2.17;;;;;;;-145.94;100.00;66302.34;5700037;25;20503;-63
2024/04/03 02:39:53;;;;;;;4.43;1.55;;;;;;;-145.94;100.00;66302.34;5734254;25;20037;-62
2024/04/03 02:43:18;;;;;;;9.35;2.33;;;;;;;-145.94;100.00;66302.34;5734515;25;20112;-63
2024/04/03 02:46:51;;;;;;;7.10;1.52;;;;;;;-145.94;100.00;66302.34;5734945;25;20501;-63
2024/04/03 02:50:16;;;;;;;4.38;1.48;;;;;;;-145.94;100.00;66302.34;5734383;25;20531;-62
2024/04/03 02:53:40;;;;;;;4.13;1.48;;;;;;;-145.94;100.00;66302.34;5734629;25;20052;-63
2024/04/03 02:57:06;;;;;;;7.32;1.88;;;;;;;-145.94;100.00;66302.34;5734350;25;20040;-63
2024/04/03 03:00:31;;;;;;;;;;;;;;;-145.94;100.00;66302.34;5734765;25;20475;-62
2024/04/03 03:03:56;;;;;;;2.90;1.30;;;;;;;-145.94;100.00;66302.34;5732965;25;19939;-62
2024/04/03 03:07:21;;;;;;;;;;;;;;;-145.94;100.00;66302.34;5734640;25;20112;-63
2024/04/03 03:10:46;;;;;;;5.43;1.58;;;;;;;-145.94;100.00;66302.34;5733473;25;19950;-63
2024/04/03 03:14:11;;;;;;;6.50;1.67;;;;;;;-145.94;100.00;66302.34;5734294;25;20477;-63
2024/04/03 03:17:36;;;;;;;8.45;2.30;;;;;;;-145.94;100.00;66302.34;5732914;25;20079;-63
2024/04/03 03:21:01;;;;;;;4.43;1.95;;;;;;;-145.94;100.00;66302.34;5700894;25;20526;-63
2024/04/03 03:24:26;;;;;;;4.57;2.00;;;;;;;-145.94;100.00;66302.34;5736952;25;20126;-63
2024/04/03 03:27:51;;;;;;;4.38;1.73;;;;;;;-145.94;100.00;66302.34;5736151;25;20120;-63
2024/04/03 03:30:17;;;;;;;4.10;1.40;;;;;;;12.57;53.45;97968.50;5737403;25;20079;-63
2024/04/03 03:32:44;;;;;;;4.95;1.75;;;;;;;12.56;53.02;97969.66;5720145;25;20395;-63
2024/04/03 03:35:10;;;;;;;7.97;2.20;;;;;;;12.52;54.04;97969.63;5739643;25;20033;-63
2024/04/03 03:37:36;;;;;;;6.85;1.50;;;;;;;12.38;54.46;97972.19;5738178;25;20052;-63
2024/04/03 03:40:04;;;;;;;4.35;1.52;;;;;;;12.40;54.60;97964.41;5705912;25;20126;-63
2024/04/03 03:42:31;;;;;;;4.75;1.77;;;;;;;12.47;54.09;97964.50;5708594;25;20072;-63
2024/04/03 03:44:57;;;;;;;3.17;1.50;;;;;;;12.48;54.34;97966.06;5710809;25;20065;-63
2024/04/03 03:47:24;;;;;;;4.25;1.65;;;;;;;12.39;54.06;97966.34;5746478;25;20081;-64
2024/04/03 03:52:40;;;;;;;8.63;3.90;;;;;;;12.26;55.39;97964.22;5749336;25;20060;-63
2024/04/03 03:55:07;;;;;;;4.00;1.77;;;;;;;12.17;55.30;97958.28;5747902;25;20075;-64
2024/04/03 03:57:33;;;;;;;3.03;1.33;;;;;;;12.19;55.24;97962.19;5748597;25;20051;-63
2024/04/03 04:00:00;;;;;;;5.75;1.67;;;;;;;12.26;55.55;97956.03;5718508;25;20037;-63
2024/04/03 04:02:26;;;;;;;5.15;1.48;;;;;;;12.23;55.38;97954.81;5746622;25;20029;-63
2024/04/03 04:04:53;;;;;;;10.80;2.00;;;;;;;12.25;55.48;97957.97;5711604;25;20041;-63
2024/04/03 04:07:20;;;;;;;5.43;1.92;;;;;;;12.28;55.20;97956.47;5744205;25;20064;-62
2024/04/03 04:09:51;;;;;;;4.35;1.40;;;;;;;12.27;55.54;97954.84;5743283;25;20100;-63
2024/04/03 04:12:19;;;;;;;3.35;1.33;;;;;;;12.23;55.54;97959.50;5707855;25;20403;-63
2024/04/03 04:14:51;;;;;;;4.75;1.70;;;;;;;12.19;54.99;97961.41;5741927;25;20033;-63
2024/04/03 04:17:19;;;;;;;3.20;1.30;;;;;;;12.15;55.42;97960.59;5739639;25;20110;-62
2024/04/03 04:19:46;;;;;;;7.05;1.90;;;;;;;12.12;55.67;97971.13;5733465;25;20079;-62
2024/04/03 04:22:13;;;;;;;7.20;1.52;;;;;;;12.10;55.44;97967.97;5733158;25;20116;-62
2024/04/03 04:24:39;;;;;;;5.82;1.45;;;;;;;12.16;55.80;97964.91;5733343;25;20145;-62
2024/04/03 04:27:07;;;;;;;3.33;1.95;;;;;;;12.18;55.02;97966.09;5735513;25;20085;-62
2024/04/03 04:29:36;;;;;;;3.67;1.80;;;;;;;12.19;55.12;97964.94;5737426;25;20041;-62
2024/04/03 04:32:09;;;;;;;3.67;1.55;;;;;;;12.27;55.04;97966.63;5736934;24;20047;-62
2024/04/03 04:34:40;;;;;;;7.68;1.65;;;;;;;12.30;54.91;97973.28;5737354;24;20110;-63
2024/04/03 04:37:07;;;;;;;2.95;1.52;;;;;;;12.31;54.50;97974.84;5739495;24;20105;-62
2024/04/03 04:39:33;;;;;;;4.45;1.48;;;;;;;12.31;54.31;97978.38;5742567;24;20048;-61
2024/04/03 04:42:00;;;;;;;5.25;1.48;;;;;;;12.30;54.20;97973.28;5741076;24;20052;-62
2024/04/03 04:44:26;;;;;;;6.18;1.92;;;;;;;12.28;54.08;97973.66;5739596;24;20033;-61
2024/04/03 04:46:54;;;;;;;5.00;1.40;;;;;;;12.26;54.51;97975.16;5734468;24;20029;-61
2024/04/03 04:49:22;;;;;;;4.15;1.55;;;;;;;12.25;54.56;97976.31;5702061;25;20040;-60
2024/04/03 04:51:52;;;;;;;6.88;2.30;;;;;;;12.29;54.28;97979.91;5735002;25;20048;-62
2024/04/03 04:54:19;;;;;;;5.43;1.55;;;;;;;12.29;53.93;97979.91;5734467;24;20057;-61
2024/04/03 04:56:46;;;;;;;8.18;3.47;;;;;;;12.34;53.82;97987.78;5737056;24;20509;-61
2024/04/03 04:59:16;;;;;;;7.10;3.45;;;;;;;12.31;52.72;97981.09;5736270;24;20037;-63
2024/04/03 05:01:42;;;;;;;1.48;1.23;;;;;;;12.29;52.34;97988.91;5717085;24;20067;-61
2024/04/03 05:04:10;;;;;;;4.80;1.45;;;;;;;12.26;52.17;97980.63;5737519;24;20041;-63
2024/04/03 05:06:37;;;;;;;4.97;1.60;;;;;;;12.29;52.25;97983.44;5735976;25;20032;-62
2024/04/03 05:09:05;;;;;;;4.68;1.60;;;;;;;12.31;51.97;97985.78;5735947;25;20087;-62
2024/04/03 05:11:32;;;;;;;3.78;1.13;;;;;;;12.35;51.53;97990.13;5736042;25;20618;-63
2024/04/03 05:13:59;;;;;;;3.83;1.17;;;;;;;12.41;50.86;97991.34;5737304;25;20512;-62
2024/04/03 05:16:26;;;;;;;2.65;1.20;;;;;;;12.44;51.36;97989.81;5736065;25;20037;-61
2024/04/03 05:18:52;;;;;;;4.57;1.35;;;;;;;12.48;51.27;97987.16;5701195;25;20108;-61
2024/04/03 05:21:22;;;;;;;2.70;1.38;;;;;;;12.51;51.01;97992.66;5700671;25;20045;-61
2024/04/03 05:23:48;;;;;;;2.10;1.08;;;;;;;12.49;51.01;97992.25;5735921;25;20037;-62
2024/04/03 05:26:15;;;;;;;2.78;1.42;;;;;;;12.50;51.56;97993.03;5735288;25;20047;-62
2024/04/03 05:28:42;;;;;;;3.42;1.40;;;;;;;12.53;51.51;97995.81;5699292;25;20575;-62
2024/04/03 05:31:10;;;;;;;4.18;1.52;;;;;;;12.58;51.17;97997.41;5699864;25;20069;-62
2024/04/03 05:33:38;;;;;;;8.00;2.78;;;;;;;12.63;51.17;97995.13;5711401;25;20037;-62
2024/04/03 05:36:06;;;;;;;1.23;0.77;;;;;;;12.63;51.62;97999.81;5699916;25;20111;-63
2024/04/03 05:38:34;;;;;;;4.90;1.13;;;;;;;12.59;51.29;97998.97;5733597;25;20063;-62
2024/04/03 05:41:01;;;;;;;3.80;1.48;;;;;;;12.61;51.67;97986.50;5735858;25;20140;-63
2024/04/03 05:43:38;;;;;;;3.65;1.48;;;;;;;12.65;51.56;97997.50;5735016;25;20081;-63
2024/04/03 05:46:04;;;;;;;2.75;1.38;;;;;;;12.65;51.70;98003.75;5700277;25;20040;-62
2024/04/03 05:48:31;;;;;;;5.00;1.25;;;;;;;12.64;52.01;97991.25;5699395;25;20033;-62
2024/04/03 05:51:03;;;;;;;3.33;1.20;;;;;;;12.67;52.26;97995.97;5735190;25;20032;-63
2024/04/03 05:53:30;;;;;;;2.47;1.35;;;;;;;12.67;51.61;98000.66;5735824;25;20181;-63
2024/04/03 05:55:59;;;;;;;2.85;1.60;;;;;;;12.68;52.44;97997.53;5735392;25;20044;-63
2024/04/03 05:58:26;;;;;;;5.78;1.15;;;;;;;12.69;51.95;97996.38;5734175;25;20068;-62
2024/04/03 06:00:57;;;;;;;4.50;1.58;;;;;;;12.68;52.07;97997.53;5734662;25;20076;-63
2024/04/03 06:03:23;;;;;;;3.80;1.10;;;;;;;12.73;52.43;97999.13;5735476;24;20048;-62
2024/04/03 06:05:55;;;;;;;6.68;1.60;;;;;;;12.80;52.40;98003.88;5735277;25;20146;-64
2024/04/03 06:08:22;;;;;;;4.35;1.83;;;;;;;12.80;52.33;98014.84;5734095;25;20514;-62
2024/04/03 06:10:49;;;;;;;4.45;1.20;;;;;;;12.82;53.06;98007.03;5734372;25;20376;-63
2024/04/03 06:13:17;;;;;;;3.60;1.10;;;;;;;12.83;52.62;98014.06;5699913;25;20052;-63
2024/04/03 06:15:44;;;;;;;1.30;1.20;;;;;;;12.89;53.44;98009.84;5700054;25;20420;-62
2024/04/03 06:18:11;;;;;;;2.70;0.90;;;;;;;12.89;53.62;98001.66;5733924;25;20029;-63
2024/04/03 06:20:38;;;;;;;4.43;1.50;;;;;;;12.87;53.30;97999.28;5734533;25;20415;-63
2024/04/03 06:23:05;;;;;;;2.88;1.20;;;;;;;12.92;53.41;98011.84;5735488;25;20036;-62
2024/04/03 06:25:31;;;;;;;5.85;1.20;;;;;;;12.95;53.77;98014.59;5735008;25;20029;-62
2024/04/03 06:27:58;;;;;;;5.75;1.30;;;;;;;12.91;53.85;98022.00;5733809;25;20041;-62
2024/04/03 06:30:24;;;;;;;4.25;1.50;;;;;;;12.83;54.72;98017.63;5734898;25;20121;-63
2024/04/03 06:32:53;;;;;;;4.38;1.35;;;;;;;12.79;54.50;98027.72;5734223;25;20538;-63
2024/04/03 06:35:20;;;;;;;4.22;1.60;;;;;;;12.76;55.36;98024.97;5734948;25;20033;-62
2024/04/03 06:37:46;;;;;;;3.28;1.58;;;;;;;12.77;55.40;98021.84;5734264;25;20426;-62
2024/04/03 06:40:14;;;;;;;3.97;1.67;;;;;;;12.77;55.61;98026.53;5734808;25;20119;-63
2024/04/03 06:42:41;;;;;;;5.15;1.52;;;;;;;12.68;55.73;98026.84;5734364;25;20412;-62
2024/04/03 06:45:07;;;;;;;6.13;1.83;;;;;;;12.63;56.58;98025.19;5735132;25;20397;-61
2024/04/03 06:47:34;;;;;;;5.63;1.48;;;;;;;12.67;56.10;98025.28;5734146;25;20037;-63
2024/04/03 06:50:01;;;;;;;5.47;2.00;;;;;;;12.65;56.55;98033.06;5733093;25;20403;-62
2024/04/03 06:52:28;;;;;;;3.35;1.25;;;;;;;12.63;57.23;98033.41;5698768;25;20041;-63
2024/04/03 06:54:55;;;;;;;2.25;1.27;;;;;;;12.57;57.13;98023.19;5698967;25;20483;-62
2024/04/03 06:57:22;;;;;;;4.75;1.60;;;;;;;12.55;57.41;98025.50;5734141;25;20129;-62
2024/04/03 06:59:49;;;;;;;4.90;1.50;;;;;;;12.61;57.74;98024.78;5699676;25;20459;-61
2024/04/03 07:02:15;;;;;;;4.43;1.67;;;;;;;12.61;57.71;98024.78;5682566;25;20079;-62
2024/04/03 07:04:42;;;;;;;2.75;1.17;;;;;;;12.62;58.08;98020.91;5734485;24;20037;-62
2024/04/03 07:07:10;;;;;;;6.40;1.33;;;;;;;12.65;57.44;98024.84;5734144;24;20025;-62
2024/04/03 07:09:37;;;;;;;3.28;1.60;;;;;;;12.67;57.73;98023.31;5734336;24;20134;-63
2024/04/03 07:12:04;;;;;;;3.13;1.50;;;;;;;12.74;58.06;98034.31;5731434;24;20041;-61
2024/04/03 07:14:31;;;;;;;4.82;1.60;;;;;;;12.89;58.13;98023.53;5734628;24;20064;-62
2024/04/03 07:16:57;;;;;;;4.47;1.50;;;;;;;12.95;58.07;98027.50;5733839;24;20032;-62
2024/04/03 07:19:24;;;;;;;2.75;1.50;;;;;;;12.94;58.36;98026.72;5733871;24;20033;-62
2024/04/03 07:21:51;;;;;;;4.47;1.80;;;;;;;12.95;58.39;98017.34;5731599;24;20061;-62
2024/04/03 07:24:17;;;;;;;6.85;2.30;;;;;;;12.99;57.95;98017.38;5731721;25;20116;-62
2024/04/03 07:26:46;;;;;;;3.08;1.92;;;;;;;13.11;58.33;98008.88;5734093;24;20498;-62
2024/04/03 07:29:14;;;;;;;2.80;1.92;;;;;;;13.16;58.27;98014.00;5734213;24;20029;-62
2024/04/03 07:31:41;;;;;;;3.92;2.00;;;;;;;13.25;57.88;98011.78;5733625;24;20064;-61
2024/04/03 07:34:08;;;;;;;6.10;1.83;;;;;;;13.34;58.08;98006.78;5701425;25;20485;-61
2024/04/03 07:36:35;;;;;;;2.70;1.50;;;;;;;13.48;57.96;98010.78;5699097;25;20045;-62
2024/04/03 07:39:02;;;;;;;4.05;1.42;;;;;;;13.50;58.02;98011.19;5734378;25;20029;-61
2024/04/03 07:41:32;;;;;;;3.45;1.30;;;;;;;13.52;57.77;98015.13;5698900;25;20471;-62
2024/04/03 07:43:59;;;;;;;4.38;1.40;;;;;;;13.56;57.66;98015.94;5698368;25;20067;-62
2024/04/03 07:46:26;;;;;;;3.13;1.48;;;;;;;13.59;57.26;98012.47;5733837;25;20154;-63
2024/04/03 07:48:53;;;;;;;3.45;1.08;;;;;;;13.67;57.49;98013.28;5734541;25;20037;-64
2024/04/03 07:51:19;;;;;;;2.22;1.38;;;;;;;13.85;57.80;98013.41;5734317;25;20153;-64
2024/04/03 07:53:46;;;;;;;3.63;1.50;;;;;;;13.96;57.08;98014.25;5698087;25;20044;-64
2024/04/03 07:56:13;;;;;;;4.70;1.60;;;;;;;14.03;56.91;98013.50;5734996;25;20146;-63
2024/04/03 07:58:42;;;;;;;2.10;1.58;;;;;;;14.02;57.06;98011.94;5697115;25;20033;-64
2024/04/03 08:01:09;;;;;;;3.28;1.50;;;;;;;14.00;57.16;98009.59;5699610;25;20044;-63
2024/04/03 08:03:37;;;;;;;2.30;1.30;;;;;;;14.03;56.87;98008.03;5711151;25;20045;-63
2024/04/03 08:06:05;;;;;;;2.63;1.80;;;;;;;13.85;57.26;97997.75;5737020;25;20145;-63
2024/04/03 08:08:32;;;;;;;4.85;1.95;;;;;;;13.82;57.71;97993.03;5667781;25;20045;-64
2024/04/03 08:11:02;;;;;;;4.10;1.83;;;;;;;14.12;57.96;97992.00;5698388;25;20029;-64
2024/04/03 08:13:29;;;;;;;5.93;2.10;;;;;;;14.37;56.91;97976.47;5734138;25;20053;-63
2024/04/03 08:16:04;;;;;;;3.92;1.38;;;;;;;14.51;56.64;97970.28;5698246;25;20064;-64
2024/04/03 08:18:32;;;;;;;5.50;2.70;;;;;;;14.74;56.10;97967.19;5732496;25;20045;-65
2024/04/03 08:21:09;;;;;;;2.83;1.17;;;;;;;14.66;55.51;97958.13;5697546;25;20388;-64
2024/04/03 08:23:37;;;;;;;3.83;1.67;;;;;;;14.71;55.75;97954.25;5697003;25;20041;-63
2024/04/03 08:26:07;;;;;;;5.85;1.88;;;;;;;14.97;55.22;97953.88;5697590;25;20037;-63
2024/04/03 08:28:39;;;;;;;3.42;1.50;;;;;;;15.22;55.40;97948.38;5731847;25;20409;-63
2024/04/03 08:31:16;;;;;;;4.38;1.65;;;;;;;15.42;54.15;97951.50;5697359;25;20029;-64
2024/04/03 08:33:43;;;;;;;5.00;1.60;;;;;;;15.42;54.53;97943.25;5733253;24;20150;-64
2024/04/03 08:36:13;;;;;;;4.55;1.60;;;;;;;15.57;54.99;97944.81;5697834;25;20108;-64
2024/04/03 08:38:41;;;;;;;3.22;1.60;;;;;;;15.81;54.16;97934.22;5731030;25;20592;-64
2024/04/03 08:41:07;;;;;;;4.88;1.08;;;;;;;15.91;53.61;97939.66;5732023;25;20033;-64
2024/04/03 08:43:34;;;;;;;3.50;1.20;;;;;;;15.96;52.69;97930.22;5732447;25;20525;-63
2024/04/03 08:46:02;;;;;;;4.45;1.10;;;;;;;16.09;52.77;97941.56;5696486;25;20059;-64
2024/04/03 08:48:29;;;;;;;2.25;1.10;;;;;;;16.05;51.80;97936.88;5695269;25;20040;-63
2024/04/03 08:50:56;;;;;;;2.08;1.20;;;;;;;16.16;51.72;97930.53;5697252;25;20041;-64
2024/04/03 08:53:24;;;;;;;2.72;0.98;;;;;;;16.25;50.26;97930.91;5697259;25;20415;-63
2024/04/03 08:55:54;;;;;;;1.02;0.90;;;;;;;16.24;49.38;97932.09;5732616;25;20108;-62
2024/04/03 08:58:22;;;;;;;1.30;1.02;;;;;;;16.32;49.62;97928.88;5663466;25;20518;-64
2024/04/03 09:00:50;;;;;;;2.45;1.15;;;;;;;16.45;48.78;97926.47;5666599;25;20045;-63
2024/04/03 09:03:19;;;;;;;1.75;1.00;;;;;;;16.65;48.77;97921.22;5681333;25;20142;-63
2024/04/03 09:05:52;;;;;;;2.03;1.25;;;;;;;16.85;48.66;97929.78;5732081;25;20523;-63
2024/04/03 09:08:19;;;;;;;3.70;1.00;;;;;;;16.92;48.33;97921.50;5730536;25;20768;-62
2024/04/03 09:10:57;;;;;;;2.25;1.20;;;;;;;16.83;48.10;97926.66;5731930;25;20261;-62
2024/04/03 09:14:23;;;;;;;1.95;0.93;;;;;;;-145.94;100.00;66302.34;5732653;25;20492;-62
2024/04/03 09:17:48;;;;;;;1.10;0.80;;;;;;;-145.94;100.00;66302.34;5736333;25;20543;-62
2024/04/03 09:21:21;;;;;;;3.10;0.90;;;;;;;-145.94;100.00;66302.34;5735871;25;20037;-62
2024/04/03 09:24:46;;;;;;;2.03;0.90;;;;;;;-145.94;100.00;66302.34;5736321;25;20055;-62
2024/04/03 09:28:11;;;;;;;;;;;;;;;-145.94;100.00;66302.34;5736864;25;20037;-62
2024/04/03 09:31:47;;;;;;;2.30;1.27;;;;;;;-145.94;100.00;66302.34;5735160;25;19970;-62
2024/04/03 09:35:13;;;;;;;2.75;0.90;;;;;;;-145.94;100.00;66302.34;5702023;25;20131;-62
2024/04/03 09:38:38;;;;;;;3.17;0.80;;;;;;;-145.94;100.00;66302.34;5735460;25;20032;-63
2024/04/03 09:42:04;;;;;;;2.83;0.95;;;;;;;-145.94;100.00;66302.34;5735777;25;20116;-62
2024/04/03 09:44:37;;;;;;;1.23;0.70;;;;;;;16.83;48.10;97926.66;5736047;25;20045;-63
2024/04/03 09:47:11;;;;;;;1.10;0.80;;;;;;;15.81;47.92;97976.25;5667361;25;20039;-63
2024/04/03 09:49:48;;;;;;;5.70;1.05;;;;;;;15.61;48.21;97972.31;5699718;25;20254;-62
2024/04/03 09:52:16;;;;;;;1.98;1.00;;;;;;;15.37;49.09;97971.91;5699513;25;20038;-62
2024/04/03 09:54:43;;;;;;;3.60;1.10;;;;;;;15.25;50.23;97966.84;5735457;25;20145;-62
2024/04/03 09:57:12;;;;;;;2.63;1.00;;;;;;;15.18;50.46;97968.78;5735027;25;20146;-62
2024/04/03 09:59:39;;;;;;;2.53;0.90;;;;;;;15.25;51.17;97968.81;5735791;25;20048;-62
2024/04/03 10:02:10;;;;;;;2.00;1.10;;;;;;;15.23;51.09;97973.88;5713690;24;20513;-63
2024/04/03 10:04:38;;;;;;;1.70;0.80;;;;;;;15.09;51.55;97972.72;5735270;25;20067;-62
2024/04/03 10:07:17;;;;;;;1.30;0.90;;;;;;;15.09;52.29;97972.72;5734975;25;20062;-63
2024/04/03 10:09:50;;;;;;;1.65;1.00;;;;;;;15.12;52.57;97969.19;5735180;25;20051;-62
2024/04/03 10:12:19;;;;;;;3.10;1.20;;;;;;;15.17;52.75;97973.50;5666903;25;20153;-62
2024/04/03 10:14:55;;;;;;;1.88;0.90;;;;;;;15.09;53.25;97978.22;5699263;25;20039;-63
2024/04/03 10:17:22;;;;;;;3.72;1.33;;;;;;;15.06;53.78;97970.75;5699442;25;20049;-63
2024/04/03 10:19:57;;;;;;;2.05;1.08;;;;;;;15.13;53.60;97970.75;5735745;25;20487;-63
2024/04/03 10:22:28;;;;;;;3.03;0.88;;;;;;;15.10;53.62;97974.28;5699841;25;20112;-62
2024/04/03 10:24:54;;;;;;;1.20;0.77;;;;;;;15.07;53.73;97975.06;5700029;25;20045;-63
2024/04/03 10:27:21;;;;;;;2.85;1.00;;;;;;;15.04;54.14;97975.84;5698972;25;20029;-64
2024/04/03 10:30:00;;;;;;;1.48;1.00;;;;;;;15.02;54.59;97971.91;5735234;25;20047;-65
2024/04/03 10:32:27;;;;;;;3.70;1.90;;;;;;;15.00;54.77;97972.31;5721820;25;20539;-63
2024/04/03 10:34:55;;;;;;;3.28;1.23;;;;;;;15.03;54.33;97971.53;5735147;24;20045;-63
2024/04/03 10:37:22;;;;;;;1.83;1.10;;;;;;;15.07;54.71;97968.81;5735161;24;20116;-63
2024/04/03 10:39:51;;;;;;;2.17;0.90;;;;;;;15.08;54.49;97971.16;5734412;25;20186;-63
2024/04/03 10:42:18;;;;;;;3.05;1.00;;;;;;;15.03;54.95;97962.50;5734080;24;20108;-63
2024/04/03 10:44:44;;;;;;;2.17;1.20;;;;;;;15.05;55.22;97969.16;5733222;25;20064;-63
2024/04/03 10:47:12;;;;;;;3.33;1.10;;;;;;;15.07;54.67;97958.59;5735844;24;20138;-64
2024/04/03 10:49:39;;;;;;;2.72;1.30;;;;;;;15.11;55.14;97964.09;5737076;24;20123;-63
2024/04/03 10:52:07;;;;;;;3.25;1.25;;;;;;;15.16;55.28;97963.69;5736358;24;20040;-63
2024/04/03 10:54:33;;;;;;;2.10;0.80;;;;;;;15.06;55.32;97959.78;5733082;24;20041;-62
2024/04/03 10:57:01;;;;;;;1.42;0.98;;;;;;;15.04;55.81;97959.34;5732287;24;20052;-62
2024/04/03 10:59:27;;;;;;;3.47;1.17;;;;;;;15.04;55.63;97956.63;5732643;24;20480;-63
2024/04/03 11:01:54;;;;;;;3.42;0.80;;;;;;;15.09;55.79;97963.69;5734155;24;20640;-64
2024/04/03 11:04:25;;;;;;;1.30;1.00;;;;;;;15.08;55.82;97954.69;5734571;25;20041;-63
2024/04/03 11:06:52;;;;;;;2.33;1.55;;;;;;;14.99;55.62;97962.50;5734326;25;20507;-63
2024/04/03 11:09:19;;;;;;;3.25;0.90;;;;;;;14.83;56.12;97968.34;5734730;25;20120;-63
2024/04/03 11:11:52;;;;;;;2.22;1.38;;;;;;;14.72;56.68;97964.81;5699081;25;20044;-63
2024/04/03 11:14:23;;;;;;;2.00;1.38;;;;;;;14.73;57.13;97960.91;5700258;25;20040;-63
2024/04/03 11:16:51;;;;;;;2.33;1.08;;;;;;;14.79;56.61;97972.28;5698845;25;20507;-63
2024/04/03 11:19:18;;;;;;;2.15;1.30;;;;;;;14.72;57.42;97964.03;5734268;25;20077;-64
2024/04/03 11:21:44;;;;;;;2.25;1.20;;;;;;;14.66;57.33;97962.84;5733955;25;20060;-62
2024/04/03 11:24:11;;;;;;;3.70;1.33;;;;;;;14.61;57.70;97971.44;5698908;25;20041;-63
2024/04/03 11:26:37;;;;;;;1.83;1.10;;;;;;;14.56;57.79;97971.84;5698799;25;20037;-62
2024/04/03 11:29:32;;;;;;;2.53;1.38;;;;;;;14.57;58.16;97971.44;5734609;25;20040;-63
2024/04/03 11:31:59;;;;;;;2.47;1.17;;;;;;;14.59;58.73;97960.88;5711615;25;20533;-63
2024/04/03 11:34:27;;;;;;;3.25;1.45;;;;;;;14.57;58.57;97970.66;5734979;25;20423;-63
2024/04/03 11:36:56;;;;;;;25.63;13.82;;;;;;;14.40;58.34;97972.94;5732971;25;20025;-63
2024/04/03 11:39:23;;;;;;;2.03;1.27;;;;;;;14.28;58.97;97976.00;5699030;25;20066;-63
2024/04/03 11:41:49;;;;;;;1.67;1.20;;;;;;;14.32;59.33;97981.53;5734060;25;20041;-62
2024/04/03 11:44:16;;;;;;;1.10;0.95;;;;;;;14.31;59.05;97980.72;5698977;25;20484;-63
2024/04/03 11:46:42;;;;;;;1.98;0.98;;;;;;;14.20;59.27;97983.44;5698531;25;20065;-63
2024/04/03 11:49:09;;;;;;;4.20;1.17;;;;;;;14.15;59.46;97985.78;5699031;25;20064;-64
2024/04/03 11:51:35;;;;;;;1.90;1.08;;;;;;;14.22;59.40;97980.31;5698128;25;20114;-62
2024/04/03 11:54:02;;;;;;;1.05;0.80;;;;;;;14.24;60.10;97976.00;5733261;25;20085;-63
2024/04/03 11:56:29;;;;;;;2.22;1.05;;;;;;;14.24;59.55;97967.00;5733422;25;20029;-63
2024/04/03 11:58:56;;;;;;;4.03;1.60;;;;;;;14.24;59.90;97977.97;5698839;25;20033;-63
2024/04/03 12:01:22;;;;;;;2.03;1.00;;;;;;;14.35;59.91;97969.78;5733452;25;20032;-62
2024/04/03 12:03:49;;;;;;;3.53;1.20;;;;;;;14.47;59.75;97972.19;5705568;24;20157;-63
2024/04/03 12:06:16;;;;;;;1.25;1.05;;;;;;;14.51;60.01;97973.78;5733807;25;20041;-63
2024/04/03 12:08:48;;;;;;;3.50;1.58;;;;;;;14.69;59.49;97973.03;5731102;25;20043;-64
2024/04/03 12:11:14;;;;;;;1.42;1.10;;;;;;;14.79;59.46;97975.03;5696932;25;20041;-64
2024/04/03 12:13:41;;;;;;;2.25;1.20;;;;;;;14.91;59.34;97965.66;5698201;25;20033;-64
2024/04/03 12:16:10;;;;;;;1.55;0.93;;;;;;;15.08;59.31;97976.66;5698726;25;20162;-63
2024/04/03 12:18:50;;;;;;;2.42;1.20;;;;;;;15.23;58.67;97968.38;5732149;25;20440;-64
2024/04/03 12:21:17;;;;;;;2.70;1.42;;;;;;;15.28;58.42;97976.25;5733471;25;20130;-64
2024/04/03 12:23:48;;;;;;;3.17;1.77;;;;;;;15.20;58.04;97966.44;5733711;25;20072;-63
2024/04/03 12:26:14;;;;;;;4.03;0.90;;;;;;;15.17;58.60;97970.75;5736327;25;20109;-64
2024/04/03 12:28:40;;;;;;;2.00;1.20;;;;;;;15.16;58.63;97971.94;5699872;25;20116;-63
2024/04/03 12:31:07;;;;;;;2.15;1.08;;;;;;;15.18;58.35;97968.78;5700514;25;20048;-63
2024/04/03 12:33:33;;;;;;;1.73;1.10;;;;;;;15.24;58.16;97976.22;5740071;25;20044;-63
2024/04/03 12:36:00;;;;;;;1.95;1.35;;;;;;;15.20;58.52;97974.66;5742145;25;20092;-64
2024/04/03 12:38:26;;;;;;;1.10;0.90;;;;;;;15.06;58.85;97973.50;5740061;24;20114;-63
2024/04/03 12:40:57;;;;;;;0.70;0.70;;;;;;;14.88;58.58;97971.91;5739586;24;20530;-63
2024/04/03 12:43:25;;;;;;;1.00;0.65;;;;;;;14.71;59.29;97970.72;5737735;24;20480;-63